Fort Severn, Canada
Current Conditions -  °F | °C
As of 8:00 AM on Sunday 21 Dec 2014 (Local Time) from CYER Reporting Station
Overcast Overcast  
Wind Chill: -11°   Ceiling: 3200
Heat Index: -6°   Visibility: 9mi
Dew Point: -7°   Wind: 7mph
Humidity: 93%   Direction: 170°S
Pressure: 29.93"   Gusts: NA
Location:  55.98°N, 87.65°W
Report Text: CYER 211300Z AUTO 17006KT 9SM OVC032 M06/M07 A2993 RMK SLP137
Loading
Personal Weather Stations






























Interactive Weather Map New forecast layout! Learn more

10-Day Weather Forecast

Advertisements
Track Severe Weather on mobile